createdAt,value
2018-05-23T00:00:07.656Z,1012.66
2018-05-23T00:01:07.564Z,1012.64
2018-05-23T00:02:07.461Z,1012.63
2018-05-23T00:03:07.395Z,1012.67
2018-05-23T00:04:07.269Z,1012.66
2018-05-23T00:05:07.177Z,1012.63
2018-05-23T00:06:07.087Z,1012.59
2018-05-23T00:07:06.986Z,1012.62
2018-05-23T00:08:06.891Z,1012.54
2018-05-23T00:09:06.788Z,1012.60
2018-05-23T00:10:06.698Z,1012.60
2018-05-23T00:11:06.595Z,1012.66
2018-05-23T00:12:06.503Z,1012.57
2018-05-23T00:13:06.401Z,1012.63
2018-05-23T00:14:06.316Z,1012.64
2018-05-23T00:15:06.218Z,1012.65
2018-05-23T00:16:06.115Z,1012.64
2018-05-23T00:17:06.026Z,1012.64
2018-05-23T00:18:05.923Z,1012.69
2018-05-23T00:19:05.830Z,1012.71
2018-05-23T00:20:05.727Z,1012.71
2018-05-23T00:21:05.637Z,1012.69
2018-05-23T00:22:05.533Z,1012.74
2018-05-23T00:23:05.442Z,1012.72
2018-05-23T00:24:05.341Z,1012.72
2018-05-23T00:25:05.249Z,1012.71
2018-05-23T00:26:05.158Z,1012.67
2018-05-23T00:27:05.054Z,1012.72
2018-05-23T00:28:04.964Z,1012.73
2018-05-23T00:29:04.860Z,1012.68
2018-05-23T00:30:04.768Z,1012.69
2018-05-23T00:31:04.666Z,1012.72
2018-05-23T00:32:04.575Z,1012.71
2018-05-23T00:33:04.472Z,1012.72
2018-05-23T00:34:04.381Z,1012.69
2018-05-23T00:35:04.291Z,1012.69
2018-05-23T00:36:04.194Z,1012.66
2018-05-23T00:37:04.114Z,1012.66
2018-05-23T00:38:03.993Z,1012.69
2018-05-23T00:39:03.902Z,1012.66
2018-05-23T00:40:03.799Z,1012.71
2018-05-23T00:41:03.708Z,1012.74
2018-05-23T00:42:03.607Z,1012.73
2018-05-23T00:43:03.514Z,1012.74
2018-05-23T00:44:03.411Z,1012.77
2018-05-23T00:45:03.318Z,1012.77
2018-05-23T00:46:03.229Z,1012.79
2018-05-23T00:47:03.127Z,1012.81
2018-05-23T00:48:03.036Z,1012.81
2018-05-23T00:49:02.931Z,1012.79
2018-05-23T00:50:02.841Z,1012.79
2018-05-23T00:51:02.738Z,1012.80
2018-05-23T00:52:02.646Z,1012.77
2018-05-23T00:53:02.793Z,1012.77
2018-05-23T00:54:02.453Z,1012.75
2018-05-23T00:55:02.350Z,1012.77
2018-05-23T00:56:02.271Z,1012.79
2018-05-23T00:57:02.156Z,1012.73
2018-05-23T00:58:02.064Z,1012.78
2018-05-23T00:59:01.974Z,1012.79
2018-05-23T01:00:01.870Z,1012.75
2018-05-23T01:01:01.780Z,1012.79
2018-05-23T01:02:01.677Z,1012.82
2018-05-23T01:03:01.885Z,1012.81
2018-05-23T01:04:01.482Z,1012.85
2018-05-23T01:05:01.395Z,1012.81
2018-05-23T01:06:01.289Z,1012.88
2018-05-23T01:07:01.196Z,1012.87
2018-05-23T01:08:01.093Z,1012.89
2018-05-23T01:09:01.005Z,1012.90
2018-05-23T01:10:00.901Z,1012.88
2018-05-23T01:11:00.811Z,1012.92
2018-05-23T01:12:00.706Z,1012.89
2018-05-23T01:13:00.614Z,1012.93
2018-05-23T01:14:00.523Z,1012.94
2018-05-23T01:15:00.420Z,1012.93
2018-05-23T01:16:00.331Z,1012.96
2018-05-23T01:17:00.227Z,1012.98
2018-05-23T01:18:00.134Z,1012.98
2018-05-23T01:19:00.032Z,1013.01
2018-05-23T01:19:59.944Z,1013.01
2018-05-23T01:20:59.839Z,1013.02
2018-05-23T01:21:59.749Z,1013.00
2018-05-23T01:22:59.943Z,1013.00
2018-05-23T01:23:59.554Z,1012.98
2018-05-23T01:24:59.451Z,1013.01
2018-05-23T01:25:59.359Z,1013.03
2018-05-23T01:26:59.255Z,1013.04
2018-05-23T01:27:59.165Z,1012.97
2018-05-23T01:28:59.061Z,1013.01
2018-05-23T01:29:58.970Z,1013.04
2018-05-23T01:30:58.869Z,1013.03
2018-05-23T01:31:58.777Z,1013.09
2018-05-23T01:32:58.924Z,1013.07
2018-05-23T01:33:58.594Z,1013.05
2018-05-23T01:34:58.493Z,1013.07
2018-05-23T01:35:58.396Z,1013.06
2018-05-23T01:36:58.297Z,1013.07
2018-05-23T01:37:58.195Z,1013.08
2018-05-23T01:38:58.103Z,1013.12
2018-05-23T01:39:58.001Z,1013.13
2018-05-23T01:40:57.908Z,1013.14
2018-05-23T01:41:57.810Z,1013.14
2018-05-23T01:42:57.715Z,1013.16
2018-05-23T01:43:57.613Z,1013.16
2018-05-23T01:44:57.520Z,1013.14
2018-05-23T01:45:57.417Z,1013.15
2018-05-23T01:46:57.327Z,1013.14
2018-05-23T01:47:57.225Z,1013.15
2018-05-23T01:48:57.132Z,1013.14
2018-05-23T01:49:57.029Z,1013.15
2018-05-23T01:50:56.939Z,1013.13
2018-05-23T01:51:56.836Z,1013.16
2018-05-23T01:52:56.994Z,1013.13
2018-05-23T01:53:56.641Z,1013.16
2018-05-23T01:54:56.554Z,1013.14
2018-05-23T01:55:56.448Z,1013.15
2018-05-23T01:56:56.356Z,1013.16
2018-05-23T01:57:56.253Z,1013.16
2018-05-23T01:58:56.162Z,1013.18
2018-05-23T01:59:56.059Z,1013.16
2018-05-23T02:00:55.981Z,1013.21
2018-05-23T02:01:55.864Z,1013.16
2018-05-23T02:02:55.774Z,1013.18
2018-05-23T02:03:55.670Z,1013.17
2018-05-23T02:04:55.580Z,1013.17
2018-05-23T02:05:55.477Z,1013.16
2018-05-23T02:06:55.386Z,1013.18
2018-05-23T02:07:55.282Z,1013.16
2018-05-23T02:08:55.191Z,1013.14
2018-05-23T02:09:55.088Z,1013.13
2018-05-23T02:10:54.998Z,1013.14
2018-05-23T02:11:54.894Z,1013.15
2018-05-23T02:12:54.803Z,1013.13
2018-05-23T02:13:54.699Z,1013.20
2018-05-23T02:14:54.609Z,1013.16
2018-05-23T02:15:54.505Z,1013.17
2018-05-23T02:16:54.414Z,1013.18
2018-05-23T02:17:54.310Z,1013.16
2018-05-23T02:18:54.224Z,1013.17
2018-05-23T02:19:54.118Z,1013.15
2018-05-23T02:20:54.026Z,1013.12
2018-05-23T02:21:53.923Z,1013.16
2018-05-23T02:22:53.832Z,1013.13
2018-05-23T02:23:53.734Z,1013.12
2018-05-23T02:24:53.637Z,1013.12
2018-05-23T02:25:53.535Z,1013.16
2018-05-23T02:26:53.445Z,1013.17
2018-05-23T02:27:53.341Z,1013.17
2018-05-23T02:28:53.249Z,1013.18
2018-05-23T02:29:53.148Z,1013.18
2018-05-23T02:30:53.045Z,1013.19
2018-05-23T02:31:52.955Z,1013.19
2018-05-23T02:32:52.849Z,1013.18
2018-05-23T02:33:52.758Z,1013.22
2018-05-23T02:34:52.654Z,1013.20
2018-05-23T02:35:52.564Z,1013.21
2018-05-23T02:36:52.461Z,1013.23
2018-05-23T02:37:52.370Z,1013.25
2018-05-23T02:38:52.266Z,1013.22
2018-05-23T02:39:52.177Z,1013.21
2018-05-23T02:40:52.073Z,1013.28
2018-05-23T02:41:51.981Z,1013.26
2018-05-23T02:42:51.878Z,1013.23
2018-05-23T02:43:51.789Z,1013.23
2018-05-23T02:44:51.685Z,1013.30
2018-05-23T02:45:51.593Z,1013.33
2018-05-23T02:46:51.489Z,1013.31
2018-05-23T02:47:51.387Z,1013.31
2018-05-23T02:48:51.296Z,1013.33
2018-05-23T02:49:51.194Z,1013.33
2018-05-23T02:50:51.105Z,1013.30
2018-05-23T02:51:50.999Z,1013.30
2018-05-23T02:52:51.209Z,1013.29
2018-05-23T02:53:50.805Z,1013.30
2018-05-23T02:54:50.713Z,1013.32
2018-05-23T02:55:50.715Z,1013.32
2018-05-23T02:56:50.520Z,1013.34
2018-05-23T02:57:50.417Z,1013.36
2018-05-23T02:58:50.325Z,1013.36
2018-05-23T02:59:50.222Z,1013.32
2018-05-23T03:00:50.119Z,1013.33
2018-05-23T03:01:50.029Z,1013.31
2018-05-23T03:02:49.931Z,1013.32
2018-05-23T03:03:49.833Z,1013.33
2018-05-23T03:04:49.731Z,1013.34
2018-05-23T03:05:49.641Z,1013.36
2018-05-23T03:06:49.536Z,1013.35
2018-05-23T03:07:49.446Z,1013.35
2018-05-23T03:08:49.355Z,1013.36
2018-05-23T03:09:49.251Z,1013.38
2018-05-23T03:10:49.149Z,1013.35
2018-05-23T03:11:49.045Z,1013.36
2018-05-23T03:12:48.953Z,1013.38
2018-05-23T03:13:48.850Z,1013.44
2018-05-23T03:14:48.760Z,1013.44
2018-05-23T03:15:48.656Z,1013.43
2018-05-23T03:16:48.566Z,1013.48
2018-05-23T03:17:48.762Z,1013.49
2018-05-23T03:18:48.371Z,1013.52
2018-05-23T03:19:48.268Z,1013.52
2018-05-23T03:20:48.177Z,1013.56
2018-05-23T03:21:48.079Z,1013.56
2018-05-23T03:22:47.970Z,1013.56
2018-05-23T03:23:47.881Z,1013.63
2018-05-23T03:24:47.780Z,1013.63
2018-05-23T03:25:47.687Z,1013.65
2018-05-23T03:26:47.587Z,1013.64
2018-05-23T03:27:47.743Z,1013.66
2018-05-23T03:28:47.390Z,1013.64
2018-05-23T03:29:47.297Z,1013.66
2018-05-23T03:30:47.207Z,1013.68
2018-05-23T03:31:47.091Z,1013.68
2018-05-23T03:32:47.008Z,1013.69
2018-05-23T03:33:46.909Z,1013.70
2018-05-23T03:34:46.806Z,1013.72
2018-05-23T03:35:46.703Z,1013.74
2018-05-23T03:36:46.613Z,1013.73
2018-05-23T03:37:46.509Z,1013.81
2018-05-23T03:38:46.418Z,1013.80
2018-05-23T03:39:46.316Z,1013.82
2018-05-23T03:40:46.213Z,1013.76
2018-05-23T03:41:46.123Z,1013.79
2018-05-23T03:42:46.018Z,1013.81
2018-05-23T03:43:45.926Z,1013.81
2018-05-23T03:44:45.823Z,1013.83
2018-05-23T03:45:45.733Z,1013.83
2018-05-23T03:46:45.635Z,1013.83
2018-05-23T03:47:45.538Z,1013.88
2018-05-23T03:48:45.475Z,1013.84
2018-05-23T03:49:45.345Z,1013.86
2018-05-23T03:50:45.241Z,1013.91
2018-05-23T03:51:45.153Z,1013.91
2018-05-23T03:52:45.047Z,1013.87
2018-05-23T03:53:44.945Z,1013.90
2018-05-23T03:54:44.853Z,1013.89
2018-05-23T03:55:44.749Z,1013.93
2018-05-23T03:56:44.658Z,1013.95
2018-05-23T03:57:44.806Z,1013.93
2018-05-23T03:58:44.465Z,1013.97
2018-05-23T03:59:44.362Z,1014.01
2018-05-23T04:00:44.269Z,1013.99
2018-05-23T04:01:44.167Z,1014.04
2018-05-23T04:02:44.078Z,1014.06
2018-05-23T04:03:43.973Z,1014.08
2018-05-23T04:04:43.902Z,1014.13
2018-05-23T04:05:43.779Z,1014.11
2018-05-23T04:06:43.688Z,1014.15
2018-05-23T04:07:43.584Z,1014.14
2018-05-23T04:08:43.493Z,1014.13
2018-05-23T04:09:43.480Z,1014.19
2018-05-23T04:10:43.304Z,1014.16
2018-05-23T04:11:43.196Z,1014.17
2018-05-23T04:12:43.110Z,1014.15
2018-05-23T04:13:43.014Z,1014.20
2018-05-23T04:14:42.911Z,1014.22
2018-05-23T04:15:42.820Z,1014.25
2018-05-23T04:16:42.716Z,1014.25
2018-05-23T04:17:42.626Z,1014.24
2018-05-23T04:18:42.525Z,1014.24
2018-05-23T04:19:42.432Z,1014.28
2018-05-23T04:20:42.332Z,1014.26
2018-05-23T04:21:42.238Z,1014.27
2018-05-23T04:22:42.136Z,1014.24
2018-05-23T04:23:42.047Z,1014.26
2018-05-23T04:24:41.942Z,1014.28
2018-05-23T04:25:41.850Z,1014.29
2018-05-23T04:26:41.773Z,1014.32
2018-05-23T04:27:41.655Z,1014.29
2018-05-23T04:28:41.566Z,1014.30
2018-05-23T04:29:41.462Z,1014.31
2018-05-23T04:30:41.371Z,1014.31
2018-05-23T04:31:41.269Z,1014.33
2018-05-23T04:32:41.178Z,1014.30
2018-05-23T04:33:41.085Z,1014.33
2018-05-23T04:34:40.984Z,1014.28
2018-05-23T04:35:40.893Z,1014.31
2018-05-23T04:36:40.800Z,1014.29
2018-05-23T04:37:40.698Z,1014.35
2018-05-23T04:38:40.607Z,1014.34
2018-05-23T04:39:40.516Z,1014.36
2018-05-23T04:40:40.413Z,1014.39
2018-05-23T04:41:40.326Z,1014.40
2018-05-23T04:42:40.232Z,1014.45
2018-05-23T04:43:40.141Z,1014.46
2018-05-23T04:44:40.037Z,1014.49
2018-05-23T04:45:39.945Z,1014.48
2018-05-23T04:46:39.856Z,1014.50
2018-05-23T04:47:39.764Z,1014.55
2018-05-23T04:48:39.723Z,1014.57
2018-05-23T04:49:39.571Z,1014.59
2018-05-23T04:50:39.483Z,1014.62
2018-05-23T04:51:39.391Z,1014.66
2018-05-23T04:52:39.297Z,1014.62
2018-05-23T04:53:39.208Z,1014.66
2018-05-23T04:54:39.105Z,1014.69
2018-05-23T04:55:39.013Z,1014.66
2018-05-23T04:56:38.925Z,1014.65
2018-05-23T04:57:38.832Z,1014.68
2018-05-23T04:58:38.742Z,1014.71
2018-05-23T04:59:38.650Z,1014.67
2018-05-23T05:00:38.560Z,1014.69
2018-05-23T05:01:38.468Z,1014.67
2018-05-23T05:02:38.380Z,1014.71
2018-05-23T05:03:38.286Z,1014.69
2018-05-23T05:04:38.184Z,1014.70
2018-05-23T05:05:38.096Z,1014.69
2018-05-23T05:06:38.001Z,1014.74
2018-05-23T05:07:38.161Z,1014.76
2018-05-23T05:08:37.820Z,1014.77
2018-05-23T05:09:37.733Z,1014.81
2018-05-23T05:10:37.638Z,1014.87
2018-05-23T05:11:37.548Z,1014.87
2018-05-23T05:12:37.458Z,1014.91
2018-05-23T05:13:37.370Z,1014.92
2018-05-23T05:14:37.275Z,1014.98
2018-05-23T05:15:37.185Z,1014.96
2018-05-23T05:16:37.094Z,1014.98
2018-05-23T05:17:37.018Z,1015.05
2018-05-23T05:18:36.928Z,1015.02
2018-05-23T05:19:36.834Z,1014.96
2018-05-23T05:20:36.743Z,1015.00
2018-05-23T05:21:36.655Z,1015.04
2018-05-23T05:22:36.862Z,1015.06
2018-05-23T05:23:36.470Z,1015.09
2018-05-23T05:24:36.380Z,1015.10
2018-05-23T05:25:36.294Z,1015.11
2018-05-23T05:26:36.198Z,1015.14
2018-05-23T05:27:36.120Z,1015.15
2018-05-23T05:28:36.035Z,1015.19
2018-05-23T05:29:35.945Z,1015.18
2018-05-23T05:30:35.847Z,1015.16
2018-05-23T05:31:35.758Z,1015.18
2018-05-23T05:32:35.667Z,1015.18
2018-05-23T05:33:35.589Z,1015.20
2018-05-23T05:34:35.496Z,1015.21
2018-05-23T05:35:35.419Z,1015.28
2018-05-23T05:36:35.315Z,1015.23
2018-05-23T05:37:35.224Z,1015.27
2018-05-23T05:38:35.220Z,1015.27
2018-05-23T05:39:35.057Z,1015.26
2018-05-23T05:40:34.971Z,1015.29
2018-05-23T05:41:34.874Z,1015.28
2018-05-23T05:42:35.033Z,1015.31
2018-05-23T05:43:34.704Z,1015.29
2018-05-23T05:44:34.613Z,1015.33
2018-05-23T05:45:34.522Z,1015.41
2018-05-23T05:46:34.432Z,1015.40
2018-05-23T05:47:34.355Z,1015.45
2018-05-23T05:48:34.262Z,1015.43
2018-05-23T05:49:34.184Z,1015.43
2018-05-23T05:50:34.093Z,1015.47
2018-05-23T05:51:34.003Z,1015.51
2018-05-23T05:52:33.913Z,1015.52
2018-05-23T05:53:33.822Z,1015.55
2018-05-23T05:54:33.748Z,1015.61
2018-05-23T05:55:33.652Z,1015.56
2018-05-23T05:56:33.561Z,1015.63
2018-05-23T05:57:33.734Z,1015.59
2018-05-23T05:58:33.395Z,1015.60
2018-05-23T05:59:33.313Z,1015.62
2018-05-23T06:00:33.222Z,1015.64
2018-05-23T06:01:33.133Z,1015.63
2018-05-23T06:02:33.041Z,1015.67
2018-05-23T06:03:32.964Z,1015.67
2018-05-23T06:04:32.872Z,1015.61
2018-05-23T06:05:32.782Z,1015.65
2018-05-23T06:06:32.702Z,1015.68
2018-05-23T06:07:32.612Z,1015.70
2018-05-23T06:08:32.534Z,1015.73
2018-05-23T06:09:32.487Z,1015.72
2018-05-23T06:10:32.353Z,1015.78
2018-05-23T06:11:32.274Z,1015.79
2018-05-23T06:12:32.182Z,1015.79
2018-05-23T06:13:32.093Z,1015.78
2018-05-23T06:14:32.014Z,1015.75
2018-05-23T06:15:31.926Z,1015.74
2018-05-23T06:16:31.844Z,1015.79
2018-05-23T06:17:32.058Z,1015.78
2018-05-23T06:18:31.670Z,1015.79
2018-05-23T06:19:31.584Z,1015.82
2018-05-23T06:20:31.497Z,1015.88
2018-05-23T06:21:31.421Z,1015.87
2018-05-23T06:22:31.325Z,1015.88
2018-05-23T06:23:31.234Z,1015.90
2018-05-23T06:24:31.156Z,1015.90
2018-05-23T06:25:31.064Z,1015.92
2018-05-23T06:26:30.986Z,1015.92
2018-05-23T06:27:30.897Z,1015.90
2018-05-23T06:28:30.805Z,1015.90
2018-05-23T06:29:30.726Z,1015.90
2018-05-23T06:30:30.734Z,1015.93
2018-05-23T06:31:30.558Z,1015.95
2018-05-23T06:32:30.466Z,1015.98
2018-05-23T06:33:30.378Z,1016.02
2018-05-23T06:34:30.298Z,1016.03
2018-05-23T06:35:30.207Z,1016.09
2018-05-23T06:36:30.129Z,1016.09
2018-05-23T06:37:30.039Z,1016.11
2018-05-23T06:38:29.971Z,1016.18
2018-05-23T06:39:29.868Z,1016.18
2018-05-23T06:40:29.778Z,1016.15
2018-05-23T06:41:29.700Z,1016.17
2018-05-23T06:42:29.610Z,1016.22
2018-05-23T06:43:29.546Z,1016.17
2018-05-23T06:44:29.440Z,1016.21
2018-05-23T06:45:29.361Z,1016.23
2018-05-23T06:46:29.271Z,1016.23
2018-05-23T06:47:29.192Z,1016.28
2018-05-23T06:48:29.102Z,1016.29
2018-05-23T06:49:29.023Z,1016.29
2018-05-23T06:50:28.937Z,1016.32
2018-05-23T06:51:28.853Z,1016.42
2018-05-23T06:52:28.776Z,1016.38
2018-05-23T06:53:28.687Z,1016.41
2018-05-23T06:54:28.608Z,1016.39
2018-05-23T06:55:28.516Z,1016.38
2018-05-23T06:56:28.437Z,1016.41
2018-05-23T06:57:28.347Z,1016.38
2018-05-23T06:58:28.269Z,1016.44
2018-05-23T06:59:28.177Z,1016.42
2018-05-23T07:00:28.099Z,1016.39
2018-05-23T07:01:28.020Z,1016.39
2018-05-23T07:02:28.180Z,1016.40
2018-05-23T07:03:27.852Z,1016.47
2018-05-23T07:04:27.761Z,1016.37
2018-05-23T07:05:27.682Z,1016.41
2018-05-23T07:06:27.591Z,1016.39
2018-05-23T07:07:27.519Z,1016.43
2018-05-23T07:08:27.423Z,1016.37
2018-05-23T07:09:27.344Z,1016.37
2018-05-23T07:10:27.265Z,1016.40
2018-05-23T07:11:27.176Z,1016.37
2018-05-23T07:12:27.097Z,1016.40
2018-05-23T07:13:27.005Z,1016.40
2018-05-23T07:14:26.930Z,1016.44
2018-05-23T07:15:26.838Z,1016.48
2018-05-23T07:16:26.759Z,1016.47
2018-05-23T07:17:26.668Z,1016.38
2018-05-23T07:18:26.593Z,1016.39
2018-05-23T07:19:26.499Z,1016.42
2018-05-23T07:20:26.423Z,1016.41
2018-05-23T07:21:26.345Z,1016.44
2018-05-23T07:22:26.250Z,1016.44
2018-05-23T07:23:26.173Z,1016.46
2018-05-23T07:24:26.082Z,1016.51
2018-05-23T07:25:26.008Z,1016.48
2018-05-23T07:26:25.912Z,1016.48
2018-05-23T07:27:25.834Z,1016.44
2018-05-23T07:28:25.745Z,1016.48
2018-05-23T07:29:25.666Z,1016.50
2018-05-23T07:30:25.588Z,1016.53
2018-05-23T07:31:25.497Z,1016.52
2018-05-23T07:32:25.417Z,1016.54
2018-05-23T07:33:25.327Z,1016.53
2018-05-23T07:34:25.249Z,1016.57
2018-05-23T07:35:25.170Z,1016.54
2018-05-23T07:36:25.080Z,1016.58
2018-05-23T07:37:25.301Z,1016.56
2018-05-23T07:38:24.935Z,1016.52
2018-05-23T07:39:24.835Z,1016.58
2018-05-23T07:40:24.755Z,1016.56
2018-05-23T07:41:24.664Z,1016.56
2018-05-23T07:42:24.587Z,1016.62
2018-05-23T07:43:24.506Z,1016.60
2018-05-23T07:44:24.415Z,1016.57
2018-05-23T07:45:24.338Z,1016.54
2018-05-23T07:46:24.260Z,1016.57
2018-05-23T07:47:24.169Z,1016.57
2018-05-23T07:48:24.089Z,1016.56
2018-05-23T07:49:24.000Z,1016.59
2018-05-23T07:50:23.924Z,1016.59
2018-05-23T07:51:23.831Z,1016.51
2018-05-23T07:52:23.756Z,1016.53
2018-05-23T07:53:23.673Z,1016.58
2018-05-23T07:54:23.585Z,1016.58
2018-05-23T07:55:23.505Z,1016.42
2018-05-23T07:56:23.413Z,1016.29
2018-05-23T07:57:23.334Z,1016.27
2018-05-23T07:58:23.256Z,1016.22
2018-05-23T07:59:23.166Z,1016.26
2018-05-23T08:00:23.089Z,1016.14
2018-05-23T08:01:22.996Z,1016.14
2018-05-23T08:02:23.168Z,1016.15
2018-05-23T08:03:22.829Z,1016.11
2018-05-23T08:04:22.738Z,1016.15
2018-05-23T08:05:22.658Z,1016.13
2018-05-23T08:06:22.569Z,1016.21
2018-05-23T08:07:22.497Z,1016.22
2018-05-23T08:08:22.399Z,1016.22
2018-05-23T08:09:22.321Z,1016.19
2018-05-23T08:10:22.232Z,1016.15
2018-05-23T08:11:22.140Z,1016.16
2018-05-23T08:12:22.060Z,1016.16
2018-05-23T08:13:21.970Z,1016.23
2018-05-23T08:14:21.884Z,1016.17
2018-05-23T08:15:21.800Z,1016.23
2018-05-23T08:16:21.712Z,1016.26
2018-05-23T08:17:21.868Z,1016.14
2018-05-23T08:18:21.529Z,1016.15
2018-05-23T08:19:21.450Z,1016.18
2018-05-23T08:20:21.359Z,1016.20
2018-05-23T08:21:21.270Z,1016.17
2018-05-23T08:22:21.177Z,1016.24
2018-05-23T08:23:21.087Z,1016.24
2018-05-23T08:24:21.086Z,1016.36
2018-05-23T08:25:20.917Z,1016.47
2018-05-23T08:26:20.832Z,1016.57
2018-05-23T08:27:20.736Z,1016.72
2018-05-23T08:28:20.646Z,1016.80
2018-05-23T08:29:20.554Z,1016.77
2018-05-23T08:30:20.464Z,1016.86
2018-05-23T08:31:20.372Z,1016.99
2018-05-23T08:32:20.284Z,1017.00
2018-05-23T08:33:20.201Z,1016.86
2018-05-23T08:34:20.112Z,1016.88
2018-05-23T08:35:20.022Z,1016.94
2018-05-23T08:36:20.025Z,1016.88
2018-05-23T08:37:19.841Z,1016.82
2018-05-23T08:38:19.749Z,1016.81
2018-05-23T08:39:19.659Z,1016.74
2018-05-23T08:40:19.567Z,1016.77
2018-05-23T08:41:19.478Z,1016.80
2018-05-23T08:42:19.386Z,1016.74
2018-05-23T08:43:19.300Z,1016.72
2018-05-23T08:44:19.204Z,1016.61
2018-05-23T08:45:19.114Z,1016.68
2018-05-23T08:46:19.036Z,1016.68
2018-05-23T08:47:18.944Z,1016.60
2018-05-23T08:48:18.854Z,1016.63
2018-05-23T08:49:18.762Z,1016.63
2018-05-23T08:50:18.672Z,1016.67
2018-05-23T08:51:18.593Z,1016.66
2018-05-23T08:52:18.503Z,1016.67
2018-05-23T08:53:18.412Z,1016.72
2018-05-23T08:54:18.334Z,1016.67
2018-05-23T08:55:18.243Z,1016.62
2018-05-23T08:56:18.153Z,1016.66
2018-05-23T08:57:18.078Z,1016.65
2018-05-23T08:58:17.985Z,1016.64
2018-05-23T08:59:17.904Z,1016.67
2018-05-23T09:00:17.814Z,1016.64
2018-05-23T09:01:17.736Z,1016.66
2018-05-23T09:02:17.644Z,1016.71
2018-05-23T09:03:17.565Z,1016.68
2018-05-23T09:04:17.476Z,1016.68
2018-05-23T09:05:17.399Z,1016.67
2018-05-23T09:06:17.306Z,1016.71
2018-05-23T09:07:17.227Z,1016.65
2018-05-23T09:08:17.154Z,1016.66
2018-05-23T09:09:17.060Z,1016.68
2018-05-23T09:10:16.980Z,1016.69
2018-05-23T09:11:16.902Z,1016.65
2018-05-23T09:12:16.819Z,1016.79
2018-05-23T09:13:16.746Z,1016.73
2018-05-23T09:14:16.654Z,1016.74
2018-05-23T09:15:16.569Z,1016.76
2018-05-23T09:16:16.486Z,1016.75
2018-05-23T09:17:16.408Z,1016.76
2018-05-23T09:18:16.329Z,1016.74
2018-05-23T09:19:16.239Z,1016.73
2018-05-23T09:20:16.160Z,1016.75
2018-05-23T09:21:16.082Z,1016.77
2018-05-23T09:22:16.003Z,1016.76
2018-05-23T09:23:15.924Z,1016.75
2018-05-23T09:24:15.836Z,1016.82
2018-05-23T09:25:15.755Z,1016.77
2018-05-23T09:26:15.678Z,1016.82
2018-05-23T09:27:15.601Z,1016.86
2018-05-23T09:28:15.522Z,1016.84
2018-05-23T09:29:15.446Z,1016.77
2018-05-23T09:30:15.364Z,1016.77
2018-05-23T09:31:15.273Z,1016.81
2018-05-23T09:32:15.236Z,1016.82
2018-05-23T09:33:15.116Z,1016.79
2018-05-23T09:34:15.039Z,1016.78
2018-05-23T09:35:14.961Z,1016.72
2018-05-23T09:36:14.881Z,1016.72
2018-05-23T09:37:14.804Z,1016.75
2018-05-23T09:38:14.724Z,1016.73
2018-05-23T09:39:14.666Z,1016.76
2018-05-23T09:40:14.559Z,1016.79
2018-05-23T09:41:14.477Z,1016.86
2018-05-23T09:42:14.400Z,1016.79
2018-05-23T09:43:14.321Z,1016.79
2018-05-23T09:44:14.242Z,1016.89
2018-05-23T09:45:14.197Z,1016.87
2018-05-23T09:46:14.087Z,1016.85
2018-05-23T09:47:14.012Z,1016.82
2018-05-23T09:48:13.933Z,1016.80
2018-05-23T09:49:13.854Z,1016.84
2018-05-23T09:50:13.773Z,1016.77
2018-05-23T09:51:13.695Z,1016.81
2018-05-23T09:52:13.619Z,1016.82
2018-05-23T09:53:13.537Z,1016.77
2018-05-23T09:54:13.460Z,1016.78
2018-05-23T09:55:13.384Z,1016.78
2018-05-23T09:56:13.304Z,1016.79
2018-05-23T09:57:13.224Z,1016.80
2018-05-23T09:58:13.147Z,1016.79
2018-05-23T09:59:13.068Z,1016.71
2018-05-23T10:00:13.061Z,1016.64
2018-05-23T10:01:12.910Z,1016.73
2018-05-23T10:02:12.835Z,1016.71
2018-05-23T10:03:12.742Z,1016.74
2018-05-23T10:04:12.663Z,1016.69
2018-05-23T10:05:12.585Z,1016.70
2018-05-23T10:06:12.506Z,1016.71
2018-05-23T10:07:12.429Z,1016.75
2018-05-23T10:08:12.350Z,1016.68
2018-05-23T10:09:12.272Z,1016.82
2018-05-23T10:10:12.193Z,1016.73
2018-05-23T10:11:12.117Z,1016.69
2018-05-23T10:12:12.037Z,1016.63
2018-05-23T10:13:11.959Z,1016.72
2018-05-23T10:14:11.886Z,1016.61
2018-05-23T10:15:11.806Z,1016.67
2018-05-23T10:16:11.737Z,1016.71
2018-05-23T10:17:11.646Z,1016.75
2018-05-23T10:18:11.580Z,1016.78
2018-05-23T10:19:11.478Z,1016.71
2018-05-23T10:20:11.399Z,1016.72
2018-05-23T10:21:11.322Z,1016.67
2018-05-23T10:22:11.242Z,1016.61
2018-05-23T10:23:11.164Z,1016.58
2018-05-23T10:24:11.087Z,1016.65
2018-05-23T10:25:11.008Z,1016.73
2018-05-23T10:26:10.941Z,1016.79
2018-05-23T10:27:10.851Z,1016.82
2018-05-23T10:28:10.772Z,1016.78
2018-05-23T10:29:10.696Z,1016.82
2018-05-23T10:30:10.616Z,1016.83
2018-05-23T10:31:10.538Z,1016.86
2018-05-23T10:32:10.459Z,1016.88
2018-05-23T10:33:10.381Z,1016.88
2018-05-23T10:34:10.302Z,1016.92
2018-05-23T10:35:10.236Z,1016.89
2018-05-23T10:36:10.158Z,1016.79
2018-05-23T10:37:10.083Z,1016.81
2018-05-23T10:38:10.001Z,1016.83
2018-05-23T10:39:10.046Z,1016.87
2018-05-23T10:40:09.845Z,1016.88
2018-05-23T10:41:09.766Z,1016.80
2018-05-23T10:42:09.687Z,1016.85
2018-05-23T10:43:09.610Z,1016.91
2018-05-23T10:44:09.545Z,1016.86
2018-05-23T10:45:09.466Z,1016.89
2018-05-23T10:46:09.460Z,1016.92
2018-05-23T10:47:09.310Z,1016.95
2018-05-23T10:48:09.234Z,1016.95
2018-05-23T10:49:09.164Z,1016.91
2018-05-23T10:50:09.087Z,1016.93
2018-05-23T10:51:09.010Z,1016.90
2018-05-23T10:52:08.999Z,1016.93
2018-05-23T10:53:08.865Z,1016.87
2018-05-23T10:54:08.792Z,1016.93
2018-05-23T10:55:08.709Z,1016.95
2018-05-23T10:56:08.631Z,1016.95
2018-05-23T10:57:08.654Z,1016.97
2018-05-23T10:58:08.484Z,1016.98
2018-05-23T10:59:08.414Z,1016.91
2018-05-23T11:00:08.337Z,1016.97
2018-05-23T11:01:08.252Z,1016.94
2018-05-23T11:02:08.187Z,1016.92
2018-05-23T11:03:08.106Z,1017.01
2018-05-23T11:04:08.029Z,1016.93
2018-05-23T11:05:07.950Z,1016.92
2018-05-23T11:06:07.883Z,1016.89
2018-05-23T11:07:07.805Z,1016.87
2018-05-23T11:08:07.729Z,1016.92
2018-05-23T11:09:07.648Z,1016.91
2018-05-23T11:10:07.570Z,1016.89
2018-05-23T11:11:07.491Z,1016.89
2018-05-23T11:12:07.494Z,1016.94
2018-05-23T11:13:07.350Z,1016.90
2018-05-23T11:14:07.269Z,1016.93
2018-05-23T11:15:07.276Z,1016.95
2018-05-23T11:16:07.113Z,1016.91
2018-05-23T11:17:07.036Z,1016.92
2018-05-23T11:18:06.959Z,1016.87
2018-05-23T11:19:06.891Z,1016.92
2018-05-23T11:20:06.812Z,1016.90
2018-05-23T11:21:06.753Z,1016.85
2018-05-23T11:22:06.656Z,1016.78
2018-05-23T11:23:06.577Z,1016.76
2018-05-23T11:24:06.500Z,1016.78
2018-05-23T11:25:06.422Z,1016.72
2018-05-23T11:26:06.356Z,1016.71
2018-05-23T11:27:06.277Z,1016.69
2018-05-23T11:28:06.199Z,1016.70
2018-05-23T11:29:06.120Z,1016.76
2018-05-23T11:30:06.045Z,1016.69
2018-05-23T11:31:05.964Z,1016.64
2018-05-23T11:32:05.954Z,1016.64
2018-05-23T11:33:05.807Z,1016.67
2018-05-23T11:34:05.720Z,1016.68
2018-05-23T11:35:05.649Z,1016.65
2018-05-23T11:36:05.563Z,1016.66
2018-05-23T11:37:05.481Z,1016.63
2018-05-23T11:38:05.404Z,1016.76
2018-05-23T11:39:05.313Z,1016.55
2018-05-23T11:40:05.237Z,1016.57
2018-05-23T11:41:05.144Z,1016.55
2018-05-23T11:42:05.066Z,1016.55
2018-05-23T11:43:04.985Z,1016.57
2018-05-23T11:44:04.896Z,1016.59
2018-05-23T11:45:04.817Z,1016.66
2018-05-23T11:46:04.727Z,1016.58
2018-05-23T11:47:04.648Z,1016.52
2018-05-23T11:48:04.557Z,1016.52
2018-05-23T11:49:04.479Z,1016.58
2018-05-23T11:50:04.387Z,1016.56
2018-05-23T11:51:04.298Z,1016.51
2018-05-23T11:52:04.221Z,1016.44
2018-05-23T11:53:04.128Z,1016.50
2018-05-23T11:54:04.049Z,1016.57
2018-05-23T11:55:03.959Z,1016.58
2018-05-23T11:56:03.868Z,1016.64
2018-05-23T11:57:03.788Z,1016.66
2018-05-23T11:58:03.699Z,1016.68
2018-05-23T11:59:03.608Z,1016.65
2018-05-23T12:00:03.531Z,1016.67
2018-05-23T12:01:03.443Z,1016.67
2018-05-23T12:02:03.360Z,1016.69
2018-05-23T12:03:03.271Z,1016.63
2018-05-23T12:04:03.179Z,1016.59